createdAt,value
2019-05-11T00:00:55.515Z,98.02
2019-05-11T00:03:55.506Z,98.02
2019-05-11T00:06:55.430Z,97.40
2019-05-11T00:09:57.891Z,97.19
2019-05-11T00:12:55.388Z,97.81
2019-05-11T00:15:55.362Z,97.19
2019-05-11T00:18:55.323Z,98.02
2019-05-11T00:21:55.296Z,97.71
2019-05-11T00:24:55.246Z,97.09
2019-05-11T00:27:55.227Z,97.81
2019-05-11T00:30:55.174Z,97.81
2019-05-11T00:33:55.163Z,98.06
2019-05-11T00:36:55.145Z,97.86
2019-05-11T00:39:55.074Z,97.91
2019-05-11T00:42:55.070Z,98.02
2019-05-11T00:45:55.014Z,97.91
2019-05-11T00:48:55.012Z,97.91
2019-05-11T00:51:54.947Z,98.12
2019-05-11T00:54:54.936Z,98.12
2019-05-11T00:57:54.902Z,98.22
2019-05-11T01:00:54.918Z,97.77
2019-05-11T01:03:54.846Z,98.38
2019-05-11T01:06:54.784Z,97.05
2019-05-11T01:09:54.770Z,97.81
2019-05-11T01:12:54.723Z,97.81
2019-05-11T01:15:54.707Z,97.81
2019-05-11T01:18:54.680Z,97.36
2019-05-11T01:21:54.646Z,96.73
2019-05-11T01:24:54.611Z,96.73
2019-05-11T01:27:54.561Z,96.43
2019-05-11T01:30:54.540Z,95.92
2019-05-11T01:33:54.503Z,95.30
2019-05-11T01:36:54.502Z,95.50
2019-05-11T01:39:54.433Z,95.81
2019-05-11T01:42:54.410Z,95.81
2019-05-11T01:45:54.382Z,96.12
2019-05-11T01:48:54.353Z,95.61
2019-05-11T01:51:54.301Z,96.22
2019-05-11T01:54:54.290Z,95.92
2019-05-11T01:57:54.241Z,95.92
2019-05-11T02:00:54.231Z,95.50
2019-05-11T02:03:54.168Z,95.61
2019-05-11T02:06:54.159Z,95.92
2019-05-11T02:09:54.111Z,96.27
2019-05-11T02:12:54.091Z,95.24
2019-05-11T02:15:54.055Z,96.12
2019-05-11T02:18:54.034Z,96.58
2019-05-11T02:21:53.992Z,96.37
2019-05-11T02:24:53.945Z,96.17
2019-05-11T02:27:53.990Z,96.02
2019-05-11T02:30:53.885Z,94.89
2019-05-11T02:33:53.873Z,94.64
2019-05-11T02:36:53.826Z,93.40
2019-05-11T02:39:53.780Z,93.30
2019-05-11T02:42:53.806Z,94.58
2019-05-11T02:45:53.718Z,93.92
2019-05-11T02:49:00.742Z,92.99
2019-05-11T02:51:53.669Z,93.10
2019-05-11T02:54:53.627Z,94.12
2019-05-11T02:57:53.606Z,94.12
2019-05-11T03:00:53.556Z,94.58
2019-05-11T03:03:53.535Z,95.20
2019-05-11T03:06:53.493Z,94.68
2019-05-11T03:09:53.479Z,95.61
2019-05-11T03:12:53.435Z,95.50
2019-05-11T03:15:53.409Z,95.40
2019-05-11T03:18:53.382Z,95.30
2019-05-11T03:21:53.348Z,95.81
2019-05-11T03:24:53.317Z,94.73
2019-05-11T03:27:53.265Z,92.48
2019-05-11T03:30:53.273Z,92.48
2019-05-11T03:33:53.208Z,91.97
2019-05-11T03:36:53.273Z,92.07
2019-05-11T03:39:53.150Z,93.10
2019-05-11T03:42:53.105Z,92.17
2019-05-11T03:45:53.093Z,92.07
2019-05-11T03:48:53.065Z,92.38
2019-05-11T03:51:53.031Z,92.27
2019-05-11T03:54:52.985Z,92.99
2019-05-11T03:57:52.958Z,93.30
2019-05-11T04:00:52.909Z,93.20
2019-05-11T04:03:52.916Z,93.20
2019-05-11T04:06:52.849Z,93.82
2019-05-11T04:09:52.888Z,94.54
2019-05-11T04:12:52.805Z,94.54
2019-05-11T04:15:52.746Z,94.43
2019-05-11T04:18:52.735Z,94.33
2019-05-11T04:21:52.684Z,94.23
2019-05-11T04:24:52.658Z,94.74
2019-05-11T04:27:52.633Z,94.54
2019-05-11T04:30:52.598Z,93.61
2019-05-11T04:33:52.598Z,92.74
2019-05-11T04:36:52.527Z,93.05
2019-05-11T04:39:52.507Z,92.60
2019-05-11T04:42:55.768Z,93.32
2019-05-11T04:45:52.438Z,92.29
2019-05-11T04:48:52.390Z,93.21
2019-05-11T04:51:52.381Z,93.42
2019-05-11T04:54:52.341Z,93.07
2019-05-11T04:57:52.303Z,93.17
2019-05-11T05:00:52.279Z,93.17
2019-05-11T05:03:54.120Z,92.93
2019-05-11T05:06:59.786Z,91.38
2019-05-11T05:09:53.163Z,89.75
2019-05-11T05:12:53.415Z,89.87
2019-05-11T05:15:53.123Z,89.04
2019-05-11T05:18:52.069Z,89.87
2019-05-11T05:21:52.068Z,88.59
2019-05-11T05:24:52.004Z,87.84
2019-05-11T05:27:51.985Z,87.84
2019-05-11T05:30:51.944Z,87.84
2019-05-11T05:33:51.926Z,87.38
2019-05-11T05:36:51.877Z,86.77
2019-05-11T05:39:51.852Z,85.96
2019-05-11T05:42:51.827Z,84.93
2019-05-11T05:45:51.776Z,85.61
2019-05-11T05:48:51.775Z,84.14
2019-05-11T05:51:51.710Z,84.99
2019-05-11T05:54:51.693Z,83.97
2019-05-11T05:57:51.651Z,85.24
2019-05-11T06:00:51.623Z,83.25
2019-05-11T06:03:51.675Z,83.62
2019-05-11T06:06:51.551Z,83.22
2019-05-11T06:09:51.528Z,84.34
2019-05-11T06:12:51.496Z,83.48
2019-05-11T06:15:51.463Z,82.23
2019-05-11T06:18:51.420Z,83.83
2019-05-11T06:21:51.399Z,83.73
2019-05-11T06:24:51.356Z,84.14
2019-05-11T06:27:51.337Z,83.93
2019-05-11T06:30:51.310Z,83.62
2019-05-11T06:33:51.259Z,83.83
2019-05-11T06:36:51.249Z,83.62
2019-05-11T06:39:51.192Z,83.28
2019-05-11T06:42:51.175Z,83.48
2019-05-11T06:45:51.148Z,83.59
2019-05-11T06:48:51.113Z,83.75
2019-05-11T06:51:51.066Z,83.54
2019-05-11T06:54:51.049Z,83.71
2019-05-11T06:57:51.013Z,83.65
2019-05-11T07:00:50.992Z,83.10
2019-05-11T07:03:50.933Z,83.04
2019-05-11T07:06:50.932Z,83.44
2019-05-11T07:09:50.873Z,82.49
2019-05-11T07:12:50.856Z,83.00
2019-05-11T07:15:50.814Z,82.35
2019-05-11T07:18:50.794Z,82.10
2019-05-11T07:21:50.762Z,80.41
2019-05-11T07:24:50.727Z,82.14
2019-05-11T07:27:50.692Z,81.70
2019-05-11T07:30:50.686Z,79.48
2019-05-11T07:33:50.612Z,80.64
2019-05-11T07:36:50.612Z,80.47
2019-05-11T07:39:50.550Z,80.47
2019-05-11T07:42:50.535Z,79.82
2019-05-11T07:45:50.490Z,80.71
2019-05-11T07:48:50.466Z,80.71
2019-05-11T07:51:50.420Z,82.35
2019-05-11T07:54:52.906Z,79.66
2019-05-11T07:57:50.375Z,78.60
2019-05-11T08:00:50.325Z,76.12
2019-05-11T08:03:50.309Z,76.65
2019-05-11T08:06:50.257Z,77.30
2019-05-11T08:09:50.244Z,75.23
2019-05-11T08:12:50.216Z,77.33
2019-05-11T08:15:50.170Z,75.27
2019-05-11T08:18:50.150Z,76.48
2019-05-11T08:21:50.103Z,72.69
2019-05-11T08:24:50.076Z,73.80
2019-05-11T08:27:50.060Z,75.33
2019-05-11T08:30:50.130Z,74.55
2019-05-11T08:33:49.975Z,74.82
2019-05-11T08:36:49.949Z,76.52
2019-05-11T08:39:49.919Z,75.16
2019-05-11T08:42:49.868Z,78.49
2019-05-11T08:45:49.853Z,76.76
2019-05-11T08:48:59.358Z,74.96
2019-05-11T08:51:49.791Z,75.40
2019-05-11T08:54:49.740Z,76.25
2019-05-11T08:57:49.733Z,75.13
2019-05-11T09:00:49.684Z,76.76
2019-05-11T09:03:49.652Z,75.95
2019-05-11T09:06:49.641Z,78.05
2019-05-11T09:09:49.604Z,76.90
2019-05-11T09:12:49.546Z,77.64
2019-05-11T09:15:49.528Z,79.41
2019-05-11T09:18:49.484Z,77.34
2019-05-11T09:21:49.469Z,77.24
2019-05-11T09:24:49.417Z,77.55
2019-05-11T09:27:49.396Z,76.90
2019-05-11T09:30:49.352Z,76.22
2019-05-11T09:33:49.333Z,76.97
2019-05-11T09:36:49.305Z,77.03
2019-05-11T09:39:49.256Z,76.73
2019-05-11T09:42:49.257Z,76.18
2019-05-11T09:45:51.811Z,75.13
2019-05-11T09:48:49.175Z,74.79
2019-05-11T09:51:49.176Z,75.51
2019-05-11T09:54:49.094Z,75.71
2019-05-11T09:57:49.109Z,74.86
2019-05-11T10:00:49.032Z,74.04
2019-05-11T10:03:49.016Z,74.65
2019-05-11T10:06:48.963Z,72.45
2019-05-11T10:09:48.954Z,71.57
2019-05-11T10:12:52.331Z,72.55
2019-05-11T10:16:03.508Z,72.65
2019-05-11T10:18:49.854Z,71.84
2019-05-11T10:21:48.859Z,74.79
2019-05-11T10:24:48.781Z,74.79
2019-05-11T10:27:49.184Z,74.69
2019-05-11T10:30:48.873Z,73.91
2019-05-11T10:33:49.183Z,74.25
2019-05-11T10:36:48.839Z,76.76
2019-05-11T10:39:48.934Z,76.25
2019-05-11T10:42:48.654Z,75.48
2019-05-11T10:45:48.577Z,77.08
2019-05-11T10:48:48.567Z,74.83
2019-05-11T10:51:48.771Z,72.21
2019-05-11T10:54:48.452Z,73.16
2019-05-11T10:57:48.869Z,73.10
2019-05-11T11:00:48.390Z,75.27
2019-05-11T11:03:48.632Z,74.52
2019-05-11T11:06:48.676Z,73.77
2019-05-11T11:09:49.074Z,72.31
2019-05-11T11:12:48.972Z,70.55
2019-05-11T11:15:48.613Z,69.43
2019-05-11T11:18:48.737Z,69.26
2019-05-11T11:21:48.878Z,66.93
2019-05-11T11:24:48.289Z,69.94
2019-05-11T11:27:48.658Z,68.41
2019-05-11T11:30:48.230Z,66.99
2019-05-11T11:33:48.896Z,65.43
2019-05-11T11:36:48.290Z,68.14
2019-05-11T11:39:47.995Z,66.66
2019-05-11T11:42:48.067Z,65.58
2019-05-11T11:45:48.450Z,64.15
2019-05-11T11:48:48.981Z,66.41
2019-05-11T11:51:48.421Z,66.00
2019-05-11T11:54:48.016Z,67.30
2019-05-11T11:57:48.984Z,66.89
2019-05-11T12:00:48.317Z,67.90
2019-05-11T12:03:48.858Z,66.76
2019-05-11T12:06:49.014Z,63.62
2019-05-11T12:09:48.473Z,59.83
2019-05-11T12:12:47.729Z,59.34
2019-05-11T12:15:48.254Z,60.39
2019-05-11T12:18:48.591Z,56.17
2019-05-11T12:21:48.419Z,59.68
2019-05-11T12:24:48.148Z,53.05
2019-05-11T12:27:49.087Z,55.04
2019-05-11T12:30:48.049Z,60.14
2019-05-11T12:33:48.283Z,59.70
2019-05-11T12:36:48.058Z,60.44
2019-05-11T12:39:47.917Z,59.65
2019-05-11T12:42:48.834Z,61.63
2019-05-11T12:45:48.159Z,61.69
2019-05-11T12:48:48.489Z,60.95
2019-05-11T12:51:48.794Z,61.24
2019-05-11T12:54:47.888Z,62.53
2019-05-11T12:57:47.875Z,64.25
2019-05-11T13:00:47.932Z,65.39
2019-05-11T13:03:49.249Z,65.66
2019-05-11T13:06:47.867Z,65.86
2019-05-11T13:09:48.471Z,66.71
2019-05-11T13:12:49.032Z,67.02
2019-05-11T13:15:47.912Z,68.68
2019-05-11T13:18:48.788Z,68.48
2019-05-11T13:21:48.652Z,68.10
2019-05-11T13:24:48.157Z,67.76
2019-05-11T13:27:48.947Z,66.85
2019-05-11T13:30:48.777Z,67.02
2019-05-11T13:33:47.943Z,66.30
2019-05-11T13:36:48.717Z,66.61
2019-05-11T13:39:48.620Z,69.80
2019-05-11T13:42:48.728Z,66.27
2019-05-11T13:45:47.945Z,65.89
2019-05-11T13:48:47.735Z,65.92
2019-05-11T13:51:54.033Z,67.90
2019-05-11T13:54:53.590Z,69.02
2019-05-11T13:57:54.016Z,69.63
2019-05-11T14:00:48.086Z,67.86
2019-05-11T14:03:48.393Z,66.23
2019-05-11T14:06:48.186Z,65.65
2019-05-11T14:09:53.893Z,65.69
2019-05-11T14:12:47.723Z,67.22
2019-05-11T14:15:48.134Z,65.05
2019-05-11T14:18:53.310Z,64.11
2019-05-11T14:21:48.795Z,64.00
2019-05-11T14:24:48.235Z,64.00
2019-05-11T14:27:47.828Z,64.07
2019-05-11T14:30:48.458Z,63.01
2019-05-11T14:33:46.090Z,64.17
2019-05-11T14:36:53.140Z,63.01
2019-05-11T14:39:48.084Z,62.94
2019-05-11T14:42:48.741Z,61.97
2019-05-11T14:45:45.973Z,63.70
2019-05-11T14:48:52.990Z,61.46
2019-05-11T14:51:52.939Z,62.48
2019-05-11T14:54:45.881Z,61.76
2019-05-11T14:57:48.371Z,64.17
2019-05-11T15:00:45.830Z,65.42
2019-05-11T15:03:45.781Z,65.86
2019-05-11T15:06:45.789Z,66.30
2019-05-11T15:09:47.940Z,66.91
2019-05-11T15:12:45.687Z,68.20
2019-05-11T15:15:45.638Z,67.59
2019-05-11T15:18:45.625Z,68.95
2019-05-11T15:21:47.532Z,68.74
2019-05-11T15:24:45.560Z,68.54
2019-05-11T15:27:45.509Z,67.38
2019-05-11T15:30:45.493Z,66.67
2019-05-11T15:33:45.453Z,67.35
2019-05-11T15:36:45.427Z,65.28
2019-05-11T15:39:45.387Z,62.10
2019-05-11T15:42:45.365Z,59.03
2019-05-11T15:45:45.328Z,60.27
2019-05-11T15:48:58.464Z,59.97
2019-05-11T15:51:48.464Z,59.99
2019-05-11T15:54:45.217Z,60.14
2019-05-11T15:57:45.200Z,58.22
2019-05-11T16:00:45.167Z,59.07
2019-05-11T16:03:45.122Z,58.36
2019-05-11T16:06:45.099Z,53.63
2019-05-11T16:09:45.052Z,56.82
2019-05-11T16:12:45.041Z,57.83
2019-05-11T16:15:45.010Z,56.21
2019-05-11T16:18:44.980Z,55.19
2019-05-11T16:21:44.965Z,53.27
2019-05-11T16:24:44.917Z,57.15
2019-05-11T16:27:44.924Z,55.02
2019-05-11T16:30:44.837Z,55.93
2019-05-11T16:33:44.810Z,58.33
2019-05-11T16:36:44.775Z,57.68
2019-05-11T16:39:46.765Z,59.08
2019-05-11T16:42:44.717Z,55.07
2019-05-11T16:45:44.678Z,55.48
2019-05-11T16:48:44.634Z,57.03
2019-05-11T16:51:44.632Z,57.61
2019-05-11T16:54:44.586Z,57.10
2019-05-11T16:57:44.539Z,53.22
2019-05-11T17:00:44.532Z,52.79
2019-05-11T17:03:44.480Z,53.22
2019-05-11T17:06:44.535Z,53.47
2019-05-11T17:09:44.409Z,53.29
2019-05-11T17:12:44.384Z,54.74
2019-05-11T17:15:44.374Z,57.21
2019-05-11T17:18:44.312Z,56.90
2019-05-11T17:21:44.305Z,56.70
2019-05-11T17:24:44.249Z,56.81
2019-05-11T17:27:44.244Z,55.48
2019-05-11T17:30:44.234Z,56.16
2019-05-11T17:33:44.152Z,54.41
2019-05-11T17:36:44.146Z,55.20
2019-05-11T17:39:44.087Z,53.50
2019-05-11T17:42:44.065Z,53.59
2019-05-11T17:45:44.022Z,52.50
2019-05-11T17:48:44.018Z,52.50
2019-05-11T17:51:43.974Z,54.87
2019-05-11T17:54:44.827Z,53.85
2019-05-11T17:57:43.914Z,53.78
2019-05-11T18:00:43.858Z,55.00
2019-05-11T18:03:43.841Z,55.22
2019-05-11T18:06:43.804Z,54.24
2019-05-11T18:09:43.797Z,53.52
2019-05-11T18:12:43.729Z,55.38
2019-05-11T18:15:43.710Z,56.40
2019-05-11T18:18:43.673Z,56.73
2019-05-11T18:21:43.651Z,57.24
2019-05-11T18:24:43.621Z,57.78
2019-05-11T18:27:43.568Z,58.19
2019-05-11T18:30:43.558Z,58.93
2019-05-11T18:33:43.500Z,58.65
2019-05-11T18:36:43.492Z,59.88
2019-05-11T18:39:43.473Z,59.70
2019-05-11T18:42:43.405Z,59.39
2019-05-11T18:45:43.397Z,59.91
2019-05-11T18:48:43.339Z,60.65
2019-05-11T18:51:43.326Z,60.55
2019-05-11T18:54:43.320Z,59.83
2019-05-11T18:57:43.256Z,60.27
2019-05-11T19:00:43.229Z,60.06
2019-05-11T19:03:43.198Z,61.83
2019-05-11T19:06:43.148Z,61.73
2019-05-11T19:09:43.139Z,61.45
2019-05-11T19:12:43.095Z,61.86
2019-05-11T19:15:43.048Z,63.12
2019-05-11T19:18:43.030Z,63.64
2019-05-11T19:21:42.996Z,64.38
2019-05-11T19:24:42.965Z,64.17
2019-05-11T19:27:42.921Z,64.79
2019-05-11T19:30:42.908Z,65.33
2019-05-11T19:33:45.608Z,64.51
2019-05-11T19:36:42.836Z,66.08
2019-05-11T19:39:42.809Z,65.47
2019-05-11T19:42:42.766Z,65.57
2019-05-11T19:45:42.737Z,65.47
2019-05-11T19:48:42.701Z,65.80
2019-05-11T19:51:42.766Z,66.11
2019-05-11T19:54:42.642Z,65.83
2019-05-11T19:57:42.598Z,66.45
2019-05-11T20:00:42.590Z,67.51
2019-05-11T20:03:42.531Z,67.30
2019-05-11T20:06:42.535Z,68.33
2019-05-11T20:09:42.469Z,68.46
2019-05-11T20:12:42.454Z,68.16
2019-05-11T20:15:42.404Z,68.77
2019-05-11T20:18:42.388Z,68.26
2019-05-11T20:21:42.379Z,68.77
2019-05-11T20:24:42.304Z,70.14
2019-05-11T20:27:42.302Z,69.84
2019-05-11T20:30:42.249Z,69.60
2019-05-11T20:33:42.223Z,70.38
2019-05-11T20:36:42.177Z,70.35
2019-05-11T20:39:42.155Z,70.25
2019-05-11T20:42:42.132Z,71.31
2019-05-11T20:45:42.081Z,70.45
2019-05-11T20:48:42.065Z,71.62
2019-05-11T20:51:42.028Z,71.82
2019-05-11T20:54:49.095Z,72.78
2019-05-11T20:57:41.953Z,73.61
2019-05-11T21:00:41.940Z,73.85
2019-05-11T21:03:41.919Z,74.40
2019-05-11T21:06:41.863Z,75.77
2019-05-11T21:09:41.839Z,75.98
2019-05-11T21:12:41.791Z,76.80
2019-05-11T21:15:41.774Z,77.56
2019-05-11T21:18:41.723Z,78.83
2019-05-11T21:21:50.079Z,78.31
2019-05-11T21:24:42.682Z,78.52
2019-05-11T21:27:41.649Z,78.83
2019-05-11T21:30:41.612Z,78.63
2019-05-11T21:33:41.568Z,78.83
2019-05-11T21:36:41.564Z,78.18
2019-05-11T21:39:41.502Z,77.62
2019-05-11T21:42:41.501Z,77.97
2019-05-11T21:45:41.434Z,79.00
2019-05-11T21:48:41.419Z,79.00
2019-05-11T21:51:41.390Z,78.94
2019-05-11T21:54:41.341Z,79.55
2019-05-11T21:57:41.327Z,80.18
2019-05-11T22:00:41.278Z,80.38
2019-05-11T22:03:41.265Z,80.93
2019-05-11T22:06:41.233Z,81.24
2019-05-11T22:09:41.186Z,81.90
2019-05-11T22:12:41.162Z,82.73
2019-05-11T22:15:41.130Z,82.66
2019-05-11T22:18:41.109Z,84.66
2019-05-11T22:21:41.054Z,86.67
2019-05-11T22:24:41.042Z,86.91
2019-05-11T22:27:40.985Z,88.36
2019-05-11T22:30:40.963Z,87.68
2019-05-11T22:33:40.923Z,87.99
2019-05-11T22:36:40.905Z,88.82
2019-05-11T22:39:40.874Z,88.45
2019-05-11T22:42:40.841Z,87.82
2019-05-11T22:45:40.817Z,88.34
2019-05-11T22:48:40.763Z,88.65
2019-05-11T22:51:40.744Z,87.16
2019-05-11T22:54:40.696Z,86.99
2019-05-11T22:57:40.681Z,86.79
2019-05-11T23:00:40.687Z,86.54
2019-05-11T23:03:40.633Z,84.74
2019-05-11T23:06:40.681Z,84.53
2019-05-11T23:09:40.659Z,84.64
2019-05-11T23:12:40.507Z,84.95
2019-05-11T23:15:40.674Z,86.40
2019-05-11T23:18:40.455Z,86.44
2019-05-11T23:21:40.429Z,87.82
2019-05-11T23:24:40.376Z,87.51
2019-05-11T23:27:40.372Z,89.42
2019-05-11T23:30:40.358Z,89.87
2019-05-11T23:33:40.283Z,90.60
2019-05-11T23:36:40.267Z,91.83
2019-05-11T23:39:40.225Z,92.35
2019-05-11T23:42:40.206Z,92.49
2019-05-11T23:45:40.183Z,94.15
2019-05-11T23:48:40.142Z,94.05
2019-05-11T23:51:40.091Z,93.88
2019-05-11T23:54:40.072Z,95.44
2019-05-11T23:57:40.028Z,96.48
